PWSweather.com
Personal Weather Stations
Station Observations
EMMBROOK1
Emmbrook, WokinghamGB

EmmbrookWokinghamGB

Lat: 51.42698, Lon: -0.850575

Elevation: 144

Station Type: WH1081

http://www.wokinghamweather.co.uk

High Low Average
Temperature 57.9°F14.4°F 45.9°F7.7°F 51.1°F10.6°F
Dew Point 51.3°F10.7°F 36.3°F2.4°F 42.0°F5.6°F
Winds 16.2 mph WSW26.1 mph WSW 0.4 mph 0.6 mph 8.1 mph 13.0 mph
Wind Gusts 28.9 mph46.5 mph 1.6 mph2.6 mph 12.5 mph20.1 mph
Humidity 86% 55% 71%
Pressure 29.74 in1007.10 in 29.13 in986.50 in -
Precipitation 0.24 in6.10 in - -
Hour Temp Dew Point Humidity Winds Wind Gusts Pressure Precip Precip Rate Daily Precip Total
12:00 AM 57.9°F14.4°C 49.7°F9.8°C 74% 12.6 mph SSE20.3 kmh SSE 19.7 mph31.7 kmh 29.17 in987.8 mb 0.00 in0.0 mm 0.00 in0.0 mm 0.00 in0.0 mm
12:15 AM 57.6°F14.2°C 49.7°F9.8°C 75% 13.9 mph S22.4 kmh S 20.6 mph33.2 kmh 29.17 in987.8 mb 0.00 in0.0 mm 0.00 in0.0 mm 0.00 in0.0 mm
12:30 AM 57.7°F14.3°C 49.5°F9.7°C 74% 15.1 mph SSW24.3 kmh SSW 28.9 mph46.5 kmh 29.16 in987.5 mb 0.00 in0.0 mm 0.00 in0.0 mm 0.00 in0.0 mm
12:45 AM 57.6°F14.2°C 49.7°F9.8°C 75% 13.0 mph S20.9 kmh S 23.5 mph37.8 kmh 29.16 in987.5 mb 0.00 in0.0 mm 0.00 in0.0 mm 0.00 in0.0 mm
01:00 AM 57.6°F14.2°C 49.3°F9.6°C 74% 12.4 mph S20.0 kmh S 24.4 mph39.3 kmh 29.15 in987.1 mb 0.00 in0.0 mm 0.00 in0.0 mm 0.00 in0.0 mm
01:15 AM 57.4°F14.1°C 49.9°F9.9°C 76% 13.9 mph S22.4 kmh S 18.3 mph29.5 kmh 29.15 in987.1 mb 0.00 in0.0 mm 0.00 in0.0 mm 0.00 in0.0 mm
01:30 AM 57.7°F14.3°C 49.9°F9.9°C 75% 14.8 mph S23.8 kmh S 19.7 mph31.7 kmh 29.15 in987.1 mb 0.00 in0.0 mm 0.00 in0.0 mm 0.00 in0.0 mm
01:45 AM 56.8°F13.8°C 50.4°F10.2°C 79% 9.1 mph SW14.6 kmh SW 14.5 mph23.3 kmh 29.15 in987.1 mb 0.01 in0.3 mm 0.04 in1.0 mm 0.01 in0.3 mm
02:00 AM 56.5°F13.6°C 50.4°F10.2°C 80% 11.5 mph SW18.5 kmh SW 25.9 mph41.7 kmh 29.14 in986.8 mb 0.01 in0.3 mm 0.00 in0.0 mm 0.01 in0.3 mm
02:15 AM 56.7°F13.7°C 50.6°F10.3°C 80% 8.7 mph SSW14.0 kmh SSW 13.0 mph20.9 kmh 29.14 in986.8 mb 0.01 in0.3 mm 0.00 in0.0 mm 0.01 in0.3 mm
02:30 AM 56.1°F13.4°C 50.7°F10.4°C 82% 11.7 mph S18.8 kmh S 17.4 mph28.0 kmh 29.14 in986.8 mb 0.02 in0.5 mm 0.04 in1.0 mm 0.02 in0.5 mm
02:45 AM 55.6°F13.1°C 50.5°F10.3°C 83% 8.6 mph SSW13.8 kmh SSW 12.1 mph19.5 kmh 29.14 in986.8 mb 0.01 in0.3 mm 0.00 in0.0 mm 0.02 in0.5 mm
03:00 AM 55.4°F13.0°C 51.0°F10.6°C 85% 7.0 mph SW11.3 kmh SW 10.7 mph17.2 kmh 29.14 in986.8 mb 0.01 in0.3 mm 0.00 in0.0 mm 0.02 in0.5 mm
03:15 AM 55.4°F13.0°C 51.0°F10.6°C 85% 7.7 mph WSW12.4 kmh WSW 11.4 mph18.3 kmh 29.13 in986.5 mb 0.01 in0.3 mm 0.00 in0.0 mm 0.02 in0.5 mm
03:30 AM 55.4°F13.0°C 51.3°F10.7°C 86% 9.5 mph WSW15.3 kmh WSW 13.6 mph21.9 kmh 29.13 in986.5 mb 0.00 in0.0 mm 0.00 in0.0 mm 0.02 in0.5 mm
03:45 AM 55.4°F13.0°C 51.0°F10.6°C 85% 7.4 mph SW11.9 kmh SW 12.1 mph19.5 kmh 29.14 in986.8 mb 0.00 in0.0 mm 0.00 in0.0 mm 0.02 in0.5 mm
04:00 AM 55.4°F13.0°C 51.0°F10.6°C 85% 8.0 mph SW12.9 kmh SW 13.6 mph21.9 kmh 29.15 in987.1 mb 0.00 in0.0 mm 0.00 in0.0 mm 0.02 in0.5 mm
04:15 AM 55.2°F12.9°C 50.8°F10.4°C 85% 6.0 mph WSW9.7 kmh WSW 9.2 mph14.8 kmh 29.16 in987.5 mb 0.00 in0.0 mm 0.00 in0.0 mm 0.02 in0.5 mm
04:30 AM 54.9°F12.7°C 50.4°F10.2°C 85% 9.3 mph WSW15.0 kmh WSW 15.2 mph24.5 kmh 29.18 in988.1 mb 0.00 in0.0 mm 0.00 in0.0 mm 0.02 in0.5 mm
04:45 AM 54.7°F12.6°C 49.6°F9.8°C 83% 8.8 mph SSW14.2 kmh SSW 14.5 mph23.3 kmh 29.18 in988.1 mb 0.00 in0.0 mm 0.00 in0.0 mm 0.02 in0.5 mm
05:00 AM 54.1°F12.3°C 48.8°F9.3°C 82% 9.1 mph WSW14.6 kmh WSW 13.6 mph21.9 kmh 29.18 in988.1 mb 0.00 in0.0 mm 0.00 in0.0 mm 0.02 in0.5 mm
05:15 AM 54.1°F12.3°C 48.8°F9.3°C 82% 10.0 mph SW16.1 kmh SW 14.5 mph23.3 kmh 29.20 in988.8 mb 0.00 in0.0 mm 0.00 in0.0 mm 0.02 in0.5 mm
05:30 AM 54.0°F12.2°C 48.6°F9.2°C 82% 11.7 mph WSW18.8 kmh WSW 18.3 mph29.5 kmh 29.21 in989.2 mb 0.00 in0.0 mm 0.00 in0.0 mm 0.02 in0.5 mm
05:45 AM 53.8°F12.1°C 48.7°F9.3°C 83% 11.0 mph SW17.7 kmh SW 16.8 mph27.0 kmh 29.22 in989.5 mb 0.00 in0.0 mm 0.00 in0.0 mm 0.02 in0.5 mm
06:00 AM 53.8°F12.1°C 48.7°F9.3°C 83% 11.4 mph WSW18.3 kmh WSW 14.5 mph23.3 kmh 29.23 in989.8 mb 0.00 in0.0 mm 0.00 in0.0 mm 0.02 in0.5 mm
06:15 AM 54.0°F12.2°C 48.9°F9.4°C 83% 9.8 mph WSW15.8 kmh WSW 14.5 mph23.3 kmh 29.24 in990.2 mb 0.00 in0.0 mm 0.00 in0.0 mm 0.02 in0.5 mm
06:30 AM 54.1°F12.3°C 49.1°F9.5°C 83% 7.8 mph SW12.6 kmh SW 14.5 mph23.3 kmh 29.26 in990.9 mb 0.00 in0.0 mm 0.00 in0.0 mm 0.02 in0.5 mm
06:45 AM 52.5°F11.4°C 47.5°F8.6°C 83% 16.2 mph WSW26.1 kmh WSW 22.8 mph36.7 kmh 29.29 in991.9 mb 0.04 in1.0 mm 0.16 in4.1 mm 0.06 in1.5 mm
07:00 AM 51.1°F10.6°C 44.8°F7.1°C 79% 13.8 mph WSW22.2 kmh WSW 18.3 mph29.5 kmh 29.32 in992.9 mb 0.04 in1.0 mm 0.00 in0.0 mm 0.06 in1.5 mm
07:15 AM 50.4°F10.2°C 44.1°F6.7°C 79% 11.3 mph W18.2 kmh W 14.5 mph23.3 kmh 29.34 in993.6 mb 0.04 in1.0 mm 0.00 in0.0 mm 0.06 in1.5 mm
07:30 AM 49.5°F9.7°C 40.8°F4.9°C 72% 14.4 mph W23.2 kmh W 18.3 mph29.5 kmh 29.36 in994.2 mb 0.04 in1.0 mm 0.00 in0.0 mm 0.06 in1.5 mm
07:45 AM 48.6°F9.2°C 39.6°F4.2°C 71% 9.8 mph WSW15.8 kmh WSW 13.6 mph21.9 kmh 29.38 in994.9 mb 0.00 in0.0 mm 0.00 in0.0 mm 0.06 in1.5 mm
08:00 AM 47.7°F8.7°C 39.1°F3.9°C 72% 8.6 mph SW13.8 kmh SW 13.0 mph20.9 kmh 29.39 in995.3 mb 0.00 in0.0 mm 0.00 in0.0 mm 0.06 in1.5 mm
08:15 AM 46.9°F8.3°C 38.4°F3.6°C 72% 8.4 mph W13.5 kmh W 11.4 mph18.3 kmh 29.41 in995.9 mb 0.00 in0.0 mm 0.00 in0.0 mm 0.06 in1.5 mm
08:30 AM 46.9°F8.3°C 38.4°F3.6°C 72% 7.5 mph SW12.1 kmh SW 9.8 mph15.8 kmh 29.41 in995.9 mb 0.00 in0.0 mm 0.00 in0.0 mm 0.06 in1.5 mm
08:45 AM 46.4°F8.0°C 37.9°F3.3°C 72% 7.6 mph SW12.2 kmh SW 12.1 mph19.5 kmh 29.43 in996.6 mb 0.00 in0.0 mm 0.00 in0.0 mm 0.06 in1.5 mm
09:00 AM 46.4°F8.0°C 37.9°F3.3°C 72% 6.3 mph W10.1 kmh W 8.3 mph13.4 kmh 29.45 in997.3 mb 0.00 in0.0 mm 0.00 in0.0 mm 0.06 in1.5 mm
09:15 AM 46.6°F8.1°C 38.4°F3.6°C 73% 6.9 mph WSW11.1 kmh WSW 9.8 mph15.8 kmh 29.46 in997.6 mb 0.00 in0.0 mm 0.00 in0.0 mm 0.06 in1.5 mm
09:30 AM 46.9°F8.3°C 38.7°F3.7°C 73% 7.2 mph WSW11.6 kmh WSW 10.7 mph17.2 kmh 29.47 in998.0 mb 0.00 in0.0 mm 0.00 in0.0 mm 0.06 in1.5 mm
09:45 AM 47.7°F8.7°C 39.4°F4.1°C 73% 7.5 mph WSW12.1 kmh WSW 10.7 mph17.2 kmh 29.49 in998.6 mb 0.00 in0.0 mm 0.00 in0.0 mm 0.06 in1.5 mm
10:00 AM 48.0°F8.9°C 39.8°F4.3°C 73% 7.4 mph WSW11.9 kmh WSW 13.6 mph21.9 kmh 29.50 in999.0 mb 0.00 in0.0 mm 0.00 in0.0 mm 0.06 in1.5 mm
10:15 AM 48.9°F9.4°C 40.7°F4.8°C 73% 7.3 mph WSW11.7 kmh WSW 12.1 mph19.5 kmh 29.51 in999.3 mb 0.00 in0.0 mm 0.00 in0.0 mm 0.06 in1.5 mm
10:30 AM 49.6°F9.8°C 40.6°F4.8°C 71% 9.8 mph WSW15.8 kmh WSW 13.0 mph20.9 kmh 29.52 in999.7 mb 0.00 in0.0 mm 0.00 in0.0 mm 0.06 in1.5 mm
10:45 AM 50.2°F10.1°C 40.8°F4.9°C 70% 8.2 mph WSW13.2 kmh WSW 11.4 mph18.3 kmh 29.52 in999.7 mb 0.00 in0.0 mm 0.00 in0.0 mm 0.06 in1.5 mm
11:00 AM 50.5°F10.3°C 39.6°F4.2°C 66% 9.9 mph WSW15.9 kmh WSW 15.2 mph24.5 kmh 29.52 in999.7 mb 0.00 in0.0 mm 0.00 in0.0 mm 0.06 in1.5 mm
11:15 AM 50.9°F10.5°C 39.2°F4.0°C 64% 10.1 mph SW16.3 kmh SW 14.5 mph23.3 kmh 29.53 in1000.0 mb 0.00 in0.0 mm 0.00 in0.0 mm 0.06 in1.5 mm
11:30 AM 51.1°F10.6°C 38.9°F3.8°C 63% 11.8 mph SW19.0 kmh SW 17.4 mph28.0 kmh 29.53 in1000.0 mb 0.00 in0.0 mm 0.00 in0.0 mm 0.06 in1.5 mm
11:45 AM 51.4°F10.8°C 39.3°F4.1°C 63% 10.3 mph SW16.6 kmh SW 17.4 mph28.0 kmh 29.54 in1000.3 mb 0.00 in0.0 mm 0.00 in0.0 mm 0.06 in1.5 mm
12:00 PM 51.4°F10.8°C 38.9°F3.8°C 62% 10.6 mph SW17.1 kmh SW 16.8 mph27.0 kmh 29.55 in1000.7 mb 0.00 in0.0 mm 0.00 in0.0 mm 0.06 in1.5 mm
12:15 PM 52.0°F11.1°C 39.0°F3.9°C 61% 9.7 mph WSW15.6 kmh WSW 15.2 mph24.5 kmh 29.55 in1000.7 mb 0.00 in0.0 mm 0.00 in0.0 mm 0.06 in1.5 mm
12:30 PM 52.2°F11.2°C 38.3°F3.5°C 59% 12.7 mph SW20.4 kmh SW 18.3 mph29.5 kmh 29.56 in1001.0 mb 0.00 in0.0 mm 0.00 in0.0 mm 0.06 in1.5 mm
12:45 PM 52.2°F11.2°C 37.8°F3.2°C 58% 10.4 mph WSW16.7 kmh WSW 16.8 mph27.0 kmh 29.56 in1001.0 mb 0.00 in0.0 mm 0.00 in0.0 mm 0.06 in1.5 mm
01:00 PM 52.2°F11.2°C 37.4°F3.0°C 57% 13.3 mph WSW21.4 kmh WSW 17.4 mph28.0 kmh 29.56 in1001.0 mb 0.00 in0.0 mm 0.00 in0.0 mm 0.06 in1.5 mm
01:15 PM 52.0°F11.1°C 36.3°F2.4°C 55% 11.1 mph SW17.9 kmh SW 18.3 mph29.5 kmh 29.57 in1001.4 mb 0.00 in0.0 mm 0.00 in0.0 mm 0.06 in1.5 mm
01:30 PM 52.2°F11.2°C 36.5°F2.5°C 55% 12.6 mph WSW20.3 kmh WSW 18.3 mph29.5 kmh 29.57 in1001.4 mb 0.00 in0.0 mm 0.00 in0.0 mm 0.06 in1.5 mm
01:45 PM 52.2°F11.2°C 36.9°F2.7°C 56% 13.3 mph WSW21.4 kmh WSW 21.3 mph34.3 kmh 29.57 in1001.4 mb 0.00 in0.0 mm 0.00 in0.0 mm 0.06 in1.5 mm
02:00 PM 52.2°F11.2°C 36.9°F2.7°C 56% 11.3 mph SW18.2 kmh SW 16.8 mph27.0 kmh 29.58 in1001.7 mb 0.00 in0.0 mm 0.00 in0.0 mm 0.06 in1.5 mm
02:15 PM 52.3°F11.3°C 37.1°F2.8°C 56% 10.7 mph SW17.2 kmh SW 13.6 mph21.9 kmh 29.59 in1002.0 mb 0.00 in0.0 mm 0.00 in0.0 mm 0.06 in1.5 mm
02:30 PM 52.9°F11.6°C 38.1°F3.4°C 57% 10.2 mph WSW16.4 kmh WSW 19.0 mph30.6 kmh 29.59 in1002.0 mb 0.00 in0.0 mm 0.00 in0.0 mm 0.06 in1.5 mm
02:45 PM 52.9°F11.6°C 37.6°F3.1°C 56% 11.7 mph SW18.8 kmh SW 19.0 mph30.6 kmh 29.60 in1002.4 mb 0.00 in0.0 mm 0.00 in0.0 mm 0.06 in1.5 mm
03:00 PM 52.5°F11.4°C 37.3°F2.9°C 56% 10.9 mph WSW17.5 kmh WSW 15.2 mph24.5 kmh 29.61 in1002.7 mb 0.00 in0.0 mm 0.00 in0.0 mm 0.06 in1.5 mm
03:15 PM 52.0°F11.1°C 37.2°F2.9°C 57% 9.3 mph SW15.0 kmh SW 15.9 mph25.6 kmh 29.61 in1002.7 mb 0.00 in0.0 mm 0.00 in0.0 mm 0.06 in1.5 mm
03:30 PM 51.4°F10.8°C 37.6°F3.1°C 59% 10.0 mph SW16.1 kmh SW 13.6 mph21.9 kmh 29.62 in1003.0 mb 0.00 in0.0 mm 0.00 in0.0 mm 0.06 in1.5 mm
03:45 PM 50.9°F10.5°C 37.5°F3.1°C 60% 7.4 mph SW11.9 kmh SW 13.0 mph20.9 kmh 29.62 in1003.0 mb 0.00 in0.0 mm 0.00 in0.0 mm 0.06 in1.5 mm
04:00 PM 50.9°F10.5°C 37.5°F3.1°C 60% 7.5 mph WSW12.1 kmh WSW 12.1 mph19.5 kmh 29.63 in1003.4 mb 0.00 in0.0 mm 0.00 in0.0 mm 0.06 in1.5 mm
04:15 PM 50.5°F10.3°C 37.2°F2.9°C 60% 7.8 mph SW12.6 kmh SW 10.7 mph17.2 kmh 29.64 in1003.7 mb 0.00 in0.0 mm 0.00 in0.0 mm 0.06 in1.5 mm
04:30 PM 50.7°F10.4°C 37.4°F3.0°C 60% 7.5 mph SW12.1 kmh SW 13.0 mph20.9 kmh 29.65 in1004.1 mb 0.00 in0.0 mm 0.00 in0.0 mm 0.06 in1.5 mm
04:45 PM 50.7°F10.4°C 37.4°F3.0°C 60% 6.2 mph WSW10.0 kmh WSW 9.2 mph14.8 kmh 29.66 in1004.4 mb 0.00 in0.0 mm 0.00 in0.0 mm 0.06 in1.5 mm
05:15 PM 50.5°F10.3°C 37.2°F2.9°C 60% 9.7 mph WSW15.6 kmh WSW 13.6 mph21.9 kmh 29.67 in1004.7 mb 0.00 in0.0 mm 0.00 in0.0 mm 0.06 in1.5 mm
05:30 PM 50.0°F10.0°C 37.1°F2.8°C 61% 5.6 mph SW9.0 kmh SW 9.2 mph14.8 kmh 29.68 in1005.1 mb 0.00 in0.0 mm 0.00 in0.0 mm 0.06 in1.5 mm
05:45 PM 49.5°F9.7°C 38.6°F3.7°C 66% 4.8 mph WSW7.7 kmh WSW 6.9 mph11.1 kmh 29.69 in1005.4 mb 0.00 in0.0 mm 0.00 in0.0 mm 0.06 in1.5 mm
06:00 PM 48.9°F9.4°C 39.2°F4.0°C 69% 3.5 mph SW5.6 kmh SW 6.9 mph11.1 kmh 29.69 in1005.4 mb 0.00 in0.0 mm 0.00 in0.0 mm 0.06 in1.5 mm
06:15 PM 48.4°F9.1°C 39.1°F3.9°C 70% 3.5 mph SW5.6 kmh SW 4.5 mph7.2 kmh 29.70 in1005.8 mb 0.00 in0.0 mm 0.00 in0.0 mm 0.06 in1.5 mm
06:30 PM 48.0°F8.9°C 39.4°F4.1°C 72% 4.2 mph WSW6.8 kmh WSW 6.9 mph11.1 kmh 29.70 in1005.8 mb 0.00 in0.0 mm 0.00 in0.0 mm 0.06 in1.5 mm
06:45 PM 48.0°F8.9°C 39.8°F4.3°C 73% 5.1 mph WSW8.2 kmh WSW 8.3 mph13.4 kmh 29.71 in1006.1 mb 0.00 in0.0 mm 0.00 in0.0 mm 0.06 in1.5 mm
07:00 PM 48.4°F9.1°C 39.8°F4.3°C 72% 5.5 mph SW8.9 kmh SW 9.8 mph15.8 kmh 29.70 in1005.8 mb 0.00 in0.0 mm 0.00 in0.0 mm 0.06 in1.5 mm
07:15 PM 48.7°F9.3°C 39.8°F4.3°C 71% 7.2 mph WSW11.6 kmh WSW 11.4 mph18.3 kmh 29.71 in1006.1 mb 0.00 in0.0 mm 0.00 in0.0 mm 0.06 in1.5 mm
07:30 PM 48.9°F9.4°C 39.9°F4.4°C 71% 6.2 mph WSW10.0 kmh WSW 8.3 mph13.4 kmh 29.73 in1006.8 mb 0.00 in0.0 mm 0.00 in0.0 mm 0.06 in1.5 mm
07:45 PM 48.7°F9.3°C 39.8°F4.3°C 71% 4.5 mph WSW7.2 kmh WSW 6.9 mph11.1 kmh 29.73 in1006.8 mb 0.00 in0.0 mm 0.00 in0.0 mm 0.06 in1.5 mm
08:00 PM 48.4°F9.1°C 39.8°F4.3°C 72% 2.2 mph SW3.5 kmh SW 3.1 mph5.0 kmh 29.72 in1006.4 mb 0.00 in0.0 mm 0.00 in0.0 mm 0.06 in1.5 mm
08:15 PM 47.8°F8.8°C 40.0°F4.4°C 74% 1.6 mph SSW2.6 kmh SSW 3.1 mph5.0 kmh 29.72 in1006.4 mb 0.00 in0.0 mm 0.00 in0.0 mm 0.06 in1.5 mm
08:30 PM 47.7°F8.7°C 39.8°F4.3°C 74% 1.6 mph SW2.6 kmh SW 3.1 mph5.0 kmh 29.73 in1006.8 mb 0.00 in0.0 mm 0.00 in0.0 mm 0.06 in1.5 mm
08:45 PM 46.9°F8.3°C 39.4°F4.1°C 75% 1.8 mph WSW2.9 kmh WSW 3.8 mph6.1 kmh 29.73 in1006.8 mb 0.00 in0.0 mm 0.00 in0.0 mm 0.06 in1.5 mm
09:00 PM 46.9°F8.3°C 38.7°F3.7°C 73% 4.8 mph SW7.7 kmh SW 6.0 mph9.7 kmh 29.74 in1007.1 mb 0.00 in0.0 mm 0.00 in0.0 mm 0.06 in1.5 mm
09:15 PM 46.9°F8.3°C 38.4°F3.6°C 72% 4.1 mph SW6.6 kmh SW 6.9 mph11.1 kmh 29.74 in1007.1 mb 0.00 in0.0 mm 0.00 in0.0 mm 0.06 in1.5 mm
09:30 PM 47.7°F8.7°C 39.1°F3.9°C 72% 3.4 mph WSW5.5 kmh WSW 4.5 mph7.2 kmh 29.73 in1006.8 mb 0.00 in0.0 mm 0.00 in0.0 mm 0.06 in1.5 mm
09:45 PM 46.9°F8.3°C 38.4°F3.6°C 72% 1.9 mph SW3.1 kmh SW 3.8 mph6.1 kmh 29.73 in1006.8 mb 0.00 in0.0 mm 0.00 in0.0 mm 0.06 in1.5 mm
10:00 PM 46.9°F8.3°C 38.4°F3.6°C 72% 0.4 mph WSW0.6 kmh WSW 1.6 mph2.6 kmh 29.73 in1006.8 mb 0.00 in0.0 mm 0.00 in0.0 mm 0.06 in1.5 mm
10:15 PM 46.6°F8.1°C 38.4°F3.6°C 73% 0.9 mph SW1.4 kmh SW 2.2 mph3.5 kmh 29.73 in1006.8 mb 0.00 in0.0 mm 0.00 in0.0 mm 0.06 in1.5 mm
10:30 PM 46.4°F8.0°C 38.2°F3.4°C 73% 2.1 mph SW3.4 kmh SW 3.8 mph6.1 kmh 29.72 in1006.4 mb 0.00 in0.0 mm 0.00 in0.0 mm 0.06 in1.5 mm
10:45 PM 46.4°F8.0°C 38.2°F3.4°C 73% 1.5 mph S2.4 kmh S 3.1 mph5.0 kmh 29.71 in1006.1 mb 0.00 in0.0 mm 0.00 in0.0 mm 0.06 in1.5 mm
11:00 PM 46.4°F8.0°C 38.2°F3.4°C 73% 2.2 mph S3.5 kmh S 3.8 mph6.1 kmh 29.71 in1006.1 mb 0.00 in0.0 mm 0.00 in0.0 mm 0.06 in1.5 mm
11:15 PM 46.2°F7.9°C 38.1°F3.4°C 73% 1.6 mph SW2.6 kmh SW 3.1 mph5.0 kmh 29.71 in1006.1 mb 0.00 in0.0 mm 0.00 in0.0 mm 0.06 in1.5 mm
11:30 PM 46.0°F7.8°C 37.9°F3.3°C 73% 1.3 mph WSW2.1 kmh WSW 3.8 mph6.1 kmh 29.71 in1006.1 mb 0.00 in0.0 mm 0.00 in0.0 mm 0.06 in1.5 mm
11:45 PM 45.9°F7.7°C 37.7°F3.2°C 73% 1.3 mph WSW2.1 kmh WSW 3.1 mph5.0 kmh 29.71 in1006.1 mb 0.00 in0.0 mm 0.00 in0.0 mm 0.06 in1.5 mm